Time;durP1;ratioP1;P1;durP2;ratioP2;P2;SDS_P1;SDS_P2;PMS_P1;PMS_P2;Temp;Humidity;BMP_temperature;BMP_pressure;BME280_temperature;BME280_humidity;BME280_pressure;Samples;Min_cycle;Max_cycle;Signal;HPM_P1;HPM_P2
2021/11/14 00:01:41;;;;;;;29.63;14.43;;;;;;;8.53;94.41;97949.03;5039889;28;20032;-53
2021/11/14 00:04:08;;;;;;;23.52;13.48;;;;;;;8.29;91.78;97941.97;5042908;28;20029;-54
2021/11/14 00:06:35;;;;;;;23.20;12.75;;;;;;;8.33;96.02;97949.69;5042233;28;20506;-55
2021/11/14 00:09:00;;;;;;;22.13;13.20;;;;;;;8.59;91.79;97949.69;5043255;28;20628;-54
2021/11/14 00:11:26;;;;;;;29.17;14.27;;;;;;;8.74;91.73;97957.88;5035013;28;20728;-54
2021/11/14 00:13:53;;;;;;;28.35;12.65;;;;;;;8.50;93.62;97944.78;5040633;28;20102;-55
2021/11/14 00:16:20;;;;;;;24.45;13.30;;;;;;;8.37;91.94;97946.91;5040941;28;20148;-53
2021/11/14 00:18:46;;;;;;;26.55;14.02;;;;;;;8.22;92.74;97945.69;5042687;28;20025;-53
2021/11/14 00:21:13;;;;;;;24.73;13.35;;;;;;;8.71;90.38;97947.56;5040450;28;20087;-54
2021/11/14 00:23:39;;;;;;;25.75;13.80;;;;;;;8.45;94.67;97944.09;5042149;28;20025;-53
2021/11/14 00:26:05;;;;;;;26.77;13.90;;;;;;;8.35;94.20;97945.28;5040384;28;20043;-54
2021/11/14 00:28:30;;;;;;;32.67;15.25;;;;;;;8.23;93.63;97949.94;5041088;28;20032;-53
2021/11/14 00:30:56;;;;;;;25.83;14.18;;;;;;;8.26;93.56;97942.06;5038239;28;20060;-54
2021/11/14 00:33:21;;;;;;;29.38;14.02;;;;;;;8.42;93.43;97946.81;5040642;28;20025;-55
2021/11/14 00:35:51;;;;;;;24.30;12.82;;;;;;;8.43;91.61;97946.75;5039426;28;20040;-53
2021/11/14 00:38:17;;;;;;;31.40;14.65;;;;;;;8.27;94.71;97943.78;5040876;28;20021;-53
2021/11/14 00:40:46;;;;;;;26.30;13.07;;;;;;;8.45;94.13;97946.69;5037269;28;20696;-55
2021/11/14 00:43:12;;;;;;;28.98;14.45;;;;;;;8.28;93.52;97942.88;5037506;28;20025;-53
2021/11/14 00:45:39;;;;;;;27.85;13.55;;;;;;;7.97;94.40;97944.75;5038975;28;20045;-55
2021/11/14 00:48:05;;;;;;;27.95;13.95;;;;;;;8.04;95.07;97944.50;5040504;28;20025;-53
2021/11/14 00:50:31;;;;;;;26.65;13.48;;;;;;;8.00;94.79;97944.66;5038686;28;20044;-52
2021/11/14 00:53:00;;;;;;;30.00;13.73;;;;;;;8.13;96.02;97951.16;5040549;28;20068;-55
2021/11/14 00:55:31;;;;;;;30.88;14.57;;;;;;;8.22;94.55;97948.28;5040122;28;20017;-55
2021/11/14 00:58:03;;;;;;;32.35;15.02;;;;;;;8.35;95.47;97955.69;5040606;28;20028;-53
2021/11/14 01:00:30;;;;;;;25.60;12.67;;;;;;;8.28;94.98;97953.25;5039193;28;20098;-54
2021/11/14 01:02:56;;;;;;;28.88;12.95;;;;;;;8.34;93.99;97959.16;5040518;28;20264;-53
2021/11/14 01:05:22;;;;;;;28.55;13.40;;;;;;;8.14;94.04;97960.63;5040113;28;20028;-54
2021/11/14 01:07:48;;;;;;;26.25;13.50;;;;;;;8.28;91.37;97955.84;5045727;28;20035;-54
2021/11/14 01:10:18;;;;;;;26.35;11.75;;;;;;;8.62;93.25;97957.38;5046137;28;20013;-54
2021/11/14 01:12:44;;;;;;;33.15;15.13;;;;;;;8.47;93.33;97963.09;5046829;28;20024;-53
2021/11/14 01:15:12;;;;;;;30.50;13.95;;;;;;;8.49;91.97;97956.09;5046658;28;20495;-53
2021/11/14 01:17:40;;;;;;;28.83;13.52;;;;;;;8.23;91.90;97952.56;5046875;28;20032;-55
2021/11/14 01:20:16;;;;;;;28.48;12.55;;;;;;;8.74;91.47;97956.09;5046122;28;20025;-54
2021/11/14 01:22:41;;;;;;;28.45;13.18;;;;;;;8.26;92.59;97957.66;5046892;28;20119;-53
2021/11/14 01:25:10;;;;;;;30.58;12.73;;;;;;;8.54;92.76;97954.19;5047008;28;20031;-54
2021/11/14 01:27:37;;;;;;;28.70;12.60;;;;;;;8.44;91.21;97968.41;5047223;28;20035;-54
2021/11/14 01:30:09;;;;;;;28.75;12.10;;;;;;;8.74;90.81;97963.06;5046584;28;20040;-54
2021/11/14 01:32:35;;;;;;;30.40;13.40;;;;;;;8.36;93.61;97963.41;5046171;28;20049;-53
2021/11/14 01:35:00;;;;;;;27.63;13.10;;;;;;;8.40;94.50;97958.94;5047635;28;20387;-53
2021/11/14 01:37:25;;;;;;;28.98;13.77;;;;;;;8.44;93.67;97963.19;5047128;28;20715;-55
2021/11/14 01:39:51;;;;;;;30.95;14.25;;;;;;;8.51;95.59;97964.69;5046956;28;20124;-53
2021/11/14 01:42:16;;;;;;;31.80;14.20;;;;;;;8.43;93.59;97967.53;5045615;28;20067;-54
2021/11/14 01:44:42;;;;;;;35.97;13.98;;;;;;;8.53;93.04;97968.09;5047115;28;20025;-53
2021/11/14 01:47:07;;;;;;;30.17;13.05;;;;;;;8.37;93.67;97974.66;5046728;28;20128;-54
2021/11/14 01:49:32;;;;;;;31.65;13.38;;;;;;;8.12;93.93;97975.44;5047195;28;20025;-54
2021/11/14 01:51:58;;;;;;;32.22;13.50;;;;;;;8.24;94.77;97964.66;5045599;28;20896;-54
2021/11/14 01:54:23;;;;;;;29.05;12.57;;;;;;;8.10;96.81;97967.72;5047445;28;20504;-54
2021/11/14 01:56:49;;;;;;;25.08;12.23;;;;;;;8.19;93.19;97976.09;5046519;28;20114;-55
2021/11/14 01:59:15;;;;;;;30.75;12.82;;;;;;;8.46;92.43;97969.19;5046816;28;20082;-54
2021/11/14 02:01:40;;;;;;;25.42;11.32;;;;;;;8.33;93.51;97971.31;5045428;28;20041;-54
2021/11/14 02:04:07;;;;;;;30.40;13.02;;;;;;;8.25;93.94;97963.78;5047052;28;20021;-54
2021/11/14 02:06:36;;;;;;;25.83;11.93;;;;;;;8.20;93.27;97983.00;5046490;28;20045;-54
2021/11/14 02:09:03;;;;;;;30.88;12.45;;;;;;;8.41;93.36;97977.09;5036173;28;20032;-53
2021/11/14 02:11:30;;;;;;;23.80;11.40;;;;;;;8.04;95.03;97983.47;5045124;28;20136;-54
2021/11/14 02:13:55;;;;;;;23.83;11.82;;;;;;;8.20;94.51;97978.66;5046980;28;20100;-54
2021/11/14 02:16:24;;;;;;;30.60;12.13;;;;;;;8.29;94.38;97987.91;5046337;28;20167;-55
2021/11/14 02:18:50;;;;;;;24.02;11.93;;;;;;;7.83;95.19;97985.00;5043828;28;20537;-54
2021/11/14 02:21:16;;;;;;;23.92;11.40;;;;;;;8.18;96.28;97983.06;5042047;28;20039;-55
2021/11/14 02:23:43;;;;;;;28.67;12.38;;;;;;;8.28;94.15;97981.84;5043695;28;20429;-55
2021/11/14 02:26:08;;;;;;;23.73;10.43;;;;;;;8.37;94.28;97985.91;5042952;28;20037;-54
2021/11/14 02:28:36;;;;;;;28.63;12.48;;;;;;;8.28;94.02;97981.84;5043795;28;20417;-55
2021/11/14 02:31:03;;;;;;;26.23;11.70;;;;;;;8.32;94.54;97972.19;5041090;28;20036;-54
2021/11/14 02:33:30;;;;;;;23.38;11.23;;;;;;;8.20;91.92;97986.44;5043541;28;20029;-55
2021/11/14 02:36:07;;;;;;;23.75;10.90;;;;;;;7.94;92.92;97981.19;5043259;28;20033;-53
2021/11/14 02:38:33;;;;;;;26.73;11.70;;;;;;;8.08;93.81;97985.06;5043109;28;20419;-52
2021/11/14 02:40:59;;;;;;;20.92;10.25;;;;;;;7.98;96.62;97988.03;5041728;28;20040;-55
2021/11/14 02:43:26;;;;;;;27.33;11.32;;;;;;;8.25;94.48;97992.34;5043451;28;21074;-55
2021/11/14 02:45:52;;;;;;;26.08;11.02;;;;;;;7.94;97.00;97991.59;5042677;28;20040;-54
2021/11/14 02:48:19;;;;;;;25.30;11.95;;;;;;;7.68;95.89;97994.09;5043254;28;20735;-54
2021/11/14 02:50:46;;;;;;;26.73;11.32;;;;;;;8.05;95.44;97992.09;5041532;28;20045;-55
2021/11/14 02:53:12;;;;;;;25.58;11.05;;;;;;;8.05;95.16;97992.97;5042910;28;20028;-54
2021/11/14 02:55:39;;;;;;;22.70;10.93;;;;;;;8.10;95.55;97998.88;5042175;28;20064;-54
2021/11/14 02:58:05;;;;;;;26.92;11.63;;;;;;;8.02;95.10;98002.63;5042765;28;20029;-55
2021/11/14 03:00:38;;;;;;;23.17;10.75;;;;;;;8.37;92.96;98003.25;5041613;28;20043;-53
2021/11/14 03:03:04;;;;;;;21.00;10.32;;;;;;;8.26;92.29;98003.59;5042443;28;20021;-55
2021/11/14 03:05:29;;;;;;;29.10;10.93;;;;;;;8.04;94.14;98000.81;5042480;28;20059;-54
2021/11/14 03:07:55;;;;;;;28.58;10.75;;;;;;;7.98;95.32;98003.59;5042349;28;20029;-53
2021/11/14 03:10:24;;;;;;;24.58;10.88;;;;;;;8.14;95.08;98004.81;5041451;28;20028;-53
2021/11/14 03:13:05;;;;;;;23.30;10.40;;;;;;;8.06;94.19;98004.22;5042142;28;20029;-54
2021/11/14 03:15:34;;;;;;;24.40;10.10;;;;;;;7.99;96.05;98007.88;5041450;28;20036;-54
2021/11/14 03:18:00;;;;;;;27.80;10.48;;;;;;;8.08;94.68;98005.84;5042322;28;20499;-55
2021/11/14 03:20:26;;;;;;;22.48;10.05;;;;;;;7.90;95.31;98007.28;5040960;28;20041;-54
2021/11/14 03:22:52;;;;;;;20.00;9.00;;;;;;;8.39;94.31;98010.09;5042231;28;20040;-55
2021/11/14 03:25:28;;;;;;;21.45;9.30;;;;;;;8.33;94.20;98009.47;5042038;28;20037;-53
2021/11/14 03:27:55;;;;;;;24.00;10.15;;;;;;;8.21;91.58;98010.69;5042535;28;20481;-53
2021/11/14 03:30:22;;;;;;;21.88;9.57;;;;;;;8.20;94.16;98003.78;5040577;28;20540;-54
2021/11/14 03:32:48;;;;;;;23.98;10.45;;;;;;;8.24;93.55;98008.84;5041111;28;20083;-54
2021/11/14 03:35:14;;;;;;;21.15;9.23;;;;;;;8.27;92.61;98011.34;5041564;28;20776;-53
2021/11/14 03:37:39;;;;;;;22.02;9.95;;;;;;;8.16;93.99;98018.63;5042173;28;20029;-52
2021/11/14 03:40:10;;;;;;;21.40;9.90;;;;;;;7.95;93.87;98019.28;5041344;28;20082;-53
2021/11/14 03:42:35;;;;;;;18.80;8.90;;;;;;;7.99;96.09;98020.88;5041281;28;20043;-54
2021/11/14 03:45:03;;;;;;;24.33;9.73;;;;;;;8.14;95.93;98017.81;5041912;28;20446;-53
2021/11/14 03:47:29;;;;;;;21.40;9.55;;;;;;;7.80;94.79;98023.19;5040623;28;20045;-56
2021/11/14 03:49:54;;;;;;;24.15;9.52;;;;;;;7.93;94.34;98028.88;5041934;28;20470;-53
2021/11/14 03:52:19;;;;;;;22.55;9.23;;;;;;;7.91;95.69;98024.56;5040896;28;20045;-54
2021/11/14 03:54:47;;;;;;;25.48;10.50;;;;;;;7.83;95.25;98030.84;5042024;28;20033;-53
2021/11/14 03:57:13;;;;;;;20.67;9.32;;;;;;;7.63;97.54;98029.72;5041385;28;20056;-54
2021/11/14 03:59:38;;;;;;;21.63;9.30;;;;;;;7.50;96.07;98029.22;5041852;28;20144;-54
2021/11/14 04:02:04;;;;;;;21.77;9.63;;;;;;;7.56;97.32;98035.13;5039849;28;20608;-53
2021/11/14 04:04:30;;;;;;;25.75;9.35;;;;;;;7.70;96.03;98038.16;5042114;28;20051;-54
2021/11/14 04:06:55;;;;;;;19.38;9.23;;;;;;;7.50;98.16;98031.81;5041243;28;20041;-54
2021/11/14 04:09:21;;;;;;;26.02;9.90;;;;;;;7.55;97.38;98031.66;5041806;28;20035;-54
2021/11/14 04:11:46;;;;;;;20.83;9.45;;;;;;;7.66;97.99;98024.41;5039625;28;20037;-55
2021/11/14 04:14:12;;;;;;;20.98;9.70;;;;;;;7.66;96.80;98028.75;5041409;28;20031;-55
2021/11/14 04:16:37;;;;;;;25.52;10.15;;;;;;;7.73;96.81;98030.28;5041002;28;20079;-54
2021/11/14 04:19:03;;;;;;;22.13;9.55;;;;;;;7.69;96.07;98032.13;5041563;28;20486;-53
2021/11/14 04:21:29;;;;;;;19.05;8.93;;;;;;;7.37;97.17;98040.84;5039649;28;20462;-54
2021/11/14 04:23:54;;;;;;;21.98;9.18;;;;;;;7.28;99.23;98038.50;5041493;28;20024;-54
2021/11/14 04:26:20;;;;;;;21.63;9.13;;;;;;;7.43;98.08;98040.66;5041055;28;20086;-53
2021/11/14 04:28:45;;;;;;;18.33;8.60;;;;;;;7.62;97.44;98040.97;5041269;28;20048;-53
2021/11/14 04:31:11;;;;;;;24.02;8.85;;;;;;;7.65;95.53;98042.66;5039917;28;20057;-53
2021/11/14 04:33:36;;;;;;;26.55;9.60;;;;;;;7.60;96.38;98049.72;5041296;28;20028;-55
2021/11/14 04:36:02;;;;;;;22.13;8.82;;;;;;;7.37;99.22;98043.44;5040916;28;20046;-55
2021/11/14 04:38:27;;;;;;;21.88;8.98;;;;;;;7.35;96.63;98040.00;5041036;28;20039;-52
2021/11/14 04:40:53;;;;;;;20.70;8.95;;;;;;;7.47;97.12;98041.41;5038760;28;20071;-54
2021/11/14 04:43:19;;;;;;;23.85;8.90;;;;;;;7.29;98.24;98048.81;5040594;28;20035;-54
2021/11/14 04:45:47;;;;;;;18.63;8.10;;;;;;;7.62;100.00;98045.31;5040411;28;20106;-53
2021/11/14 04:48:13;;;;;;;20.20;8.98;;;;;;;7.47;97.38;98039.66;5040874;28;20078;-54
2021/11/14 04:50:38;;;;;;;22.33;9.02;;;;;;;7.60;100.00;98045.38;5039401;28;20128;-52
2021/11/14 04:53:05;;;;;;;22.55;9.00;;;;;;;7.68;97.36;98047.75;5040901;28;20056;-55
2021/11/14 04:55:32;;;;;;;19.77;8.18;;;;;;;7.69;95.02;98041.66;5040609;28;20126;-54
2021/11/14 04:57:57;;;;;;;25.00;9.52;;;;;;;7.93;97.36;98049.66;5040578;28;20025;-55
2021/11/14 05:00:26;;;;;;;26.88;9.80;;;;;;;7.68;96.26;98047.75;5039445;28;20033;-55
2021/11/14 05:02:53;;;;;;;23.48;8.75;;;;;;;7.97;94.77;98048.66;5040696;28;20517;-53
2021/11/14 05:05:18;;;;;;;26.38;10.25;;;;;;;7.53;97.44;98044.72;5040025;28;20044;-53
2021/11/14 05:07:44;;;;;;;22.50;8.20;;;;;;;7.96;96.28;98049.53;5040848;28;20028;-55
2021/11/14 05:10:10;;;;;;;27.35;9.13;;;;;;;8.13;94.21;98055.09;5040057;28;20017;-54
2021/11/14 05:12:36;;;;;;;22.70;8.88;;;;;;;8.14;95.22;98056.78;5041031;28;20021;-54
2021/11/14 05:15:03;;;;;;;22.88;9.10;;;;;;;8.17;93.53;98059.28;5042112;28;20539;-54
2021/11/14 05:17:28;;;;;;;19.83;7.15;;;;;;;8.39;94.92;98053.44;5016177;28;20038;-53
2021/11/14 05:19:53;;;;;;;28.98;10.02;;;;;;;8.16;93.38;98065.41;5015974;28;20037;-53
2021/11/14 05:22:19;;;;;;;27.65;9.77;;;;;;;8.08;97.45;98072.56;5038383;28;20041;-54
2021/11/14 05:24:44;;;;;;;26.52;9.52;;;;;;;8.08;95.03;98072.56;5040478;28;20033;-55
2021/11/14 05:27:10;;;;;;;22.15;9.18;;;;;;;7.90;95.71;98080.00;5040079;28;20033;-52
2021/11/14 05:29:35;;;;;;;24.05;9.88;;;;;;;7.91;96.13;98076.50;5040292;28;20021;-54
2021/11/14 05:32:00;;;;;;;28.25;10.10;;;;;;;8.02;96.68;98077.94;5039426;28;20052;-52
2021/11/14 05:34:26;;;;;;;28.38;9.32;;;;;;;7.89;94.35;98080.88;5040508;28;20102;-54
2021/11/14 05:36:51;;;;;;;26.90;9.23;;;;;;;8.05;95.01;98083.91;5040174;28;20057;-54
2021/11/14 05:39:16;;;;;;;31.27;10.20;;;;;;;8.37;92.37;98091.63;5040587;28;20021;-53
2021/11/14 05:41:42;;;;;;;24.00;9.25;;;;;;;7.84;96.04;98090.53;5037667;28;20048;-54
2021/11/14 05:44:08;;;;;;;24.40;9.15;;;;;;;8.16;97.61;98091.38;5039956;28;20060;-54
2021/11/14 05:46:34;;;;;;;29.50;10.48;;;;;;;8.16;93.80;98106.97;5040104;28;20041;-53
2021/11/14 05:48:59;;;;;;;28.38;10.48;;;;;;;8.05;94.76;98102.09;5039935;28;20026;-55
2021/11/14 05:51:27;;;;;;;25.27;9.23;;;;;;;8.01;97.43;98107.41;5036535;28;20037;-54
2021/11/14 05:53:53;;;;;;;27.70;10.25;;;;;;;8.21;95.50;98109.41;5041633;28;20543;-54
2021/11/14 05:56:18;;;;;;;26.75;10.55;;;;;;;7.83;95.44;98107.03;5043555;28;20043;-54
2021/11/14 05:58:55;;;;;;;30.33;10.65;;;;;;;8.03;93.75;98111.66;5043696;28;20706;-55
2021/11/14 06:01:44;;;;;;;30.15;10.63;;;;;;;7.71;96.09;98109.97;5042527;28;20514;-55
2021/11/14 06:04:32;;;;;;;25.17;9.88;;;;;;;8.15;92.91;98120.84;5043584;28;20037;-54
2021/11/14 06:06:57;;;;;;;28.13;10.27;;;;;;;7.95;96.00;98128.38;5043275;28;20041;-54
2021/11/14 06:09:22;;;;;;;31.35;11.15;;;;;;;7.90;95.62;98126.75;5043781;28;20031;-54
2021/11/14 06:11:48;;;;;;;34.17;11.23;;;;;;;8.06;95.10;98134.09;5042295;28;20040;-54
2021/11/14 06:14:14;;;;;;;30.20;10.77;;;;;;;8.15;94.80;98136.44;5043259;28;20124;-54
2021/11/14 06:16:39;;;;;;;25.20;9.82;;;;;;;8.03;95.28;98131.56;5043179;28;20588;-55
2021/11/14 06:19:05;;;;;;;29.88;11.10;;;;;;;7.94;95.73;98143.09;5043772;28;20033;-54
2021/11/14 06:21:30;;;;;;;29.27;11.05;;;;;;;7.94;95.27;98155.22;5041775;28;20048;-54
2021/11/14 06:23:56;;;;;;;29.30;10.68;;;;;;;7.78;100.00;98160.00;5043615;28;20029;-56
2021/11/14 06:26:26;;;;;;;32.22;11.40;;;;;;;7.98;97.24;98159.44;5043242;28;20067;-55
2021/11/14 06:28:51;;;;;;;29.05;10.77;;;;;;;7.69;98.02;98174.06;5043334;28;20021;-55
2021/11/14 06:31:17;;;;;;;38.58;11.85;;;;;;;8.30;97.31;98167.16;5042155;28;20865;-53
2021/11/14 06:33:45;;;;;;;27.77;10.77;;;;;;;8.17;93.68;98171.00;5043292;28;20086;-54
2021/11/14 06:36:10;;;;;;;30.88;11.80;;;;;;;8.29;95.67;98168.06;5042778;28;20645;-55
2021/11/14 06:38:35;;;;;;;28.73;10.65;;;;;;;8.35;93.75;98163.59;5043153;28;20128;-54
2021/11/14 06:41:01;;;;;;;31.92;11.82;;;;;;;8.32;92.53;98168.88;5040281;28;20040;-56
2021/11/14 06:43:26;;;;;;;36.38;12.45;;;;;;;8.18;93.76;98177.94;5042723;28;20043;-55
2021/11/14 06:45:52;;;;;;;32.65;12.30;;;;;;;8.70;89.86;98174.72;5042690;28;20037;-54
2021/11/14 06:48:17;;;;;;;27.38;11.35;;;;;;;8.37;94.52;98180.84;5043292;28;20110;-54
2021/11/14 06:50:43;;;;;;;32.47;12.48;;;;;;;8.58;92.82;98181.97;5039287;28;20557;-56
2021/11/14 06:53:08;;;;;;;29.23;11.48;;;;;;;8.16;95.49;98197.91;5042760;28;20610;-55
2021/11/14 06:55:35;;;;;;;33.30;12.55;;;;;;;8.34;93.26;98187.88;5042629;28;20435;-54
2021/11/14 06:58:00;;;;;;;31.83;12.52;;;;;;;8.05;95.39;98197.31;5042775;28;20609;-54
2021/11/14 07:00:28;;;;;;;31.98;12.52;;;;;;;8.11;94.72;98202.38;5041994;28;20364;-53
2021/11/14 07:02:53;;;;;;;32.15;12.05;;;;;;;8.23;93.14;98206.38;5043717;28;20017;-53
2021/11/14 07:05:19;;;;;;;32.97;12.52;;;;;;;8.13;94.57;98204.94;5039669;28;20035;-55
2021/11/14 07:07:45;;;;;;;30.35;12.02;;;;;;;8.41;95.46;98199.78;5023033;28;20112;-54
2021/11/14 07:10:13;;;;;;;34.50;12.35;;;;;;;8.49;94.03;98206.50;5023955;28;20040;-54
2021/11/14 07:12:39;;;;;;;39.25;13.05;;;;;;;8.59;95.05;98204.47;5042311;28;20406;-54
2021/11/14 07:15:07;;;;;;;34.92;12.73;;;;;;;8.27;95.80;98202.78;5041031;28;20021;-53
2021/11/14 07:17:34;;;;;;;35.35;12.73;;;;;;;8.14;94.09;98210.06;5042145;28;20048;-55
2021/11/14 07:20:00;;;;;;;35.75;13.85;;;;;;;8.20;96.67;98214.25;5042356;28;20797;-55
2021/11/14 07:22:27;;;;;;;32.05;13.75;;;;;;;8.38;95.79;98205.06;5041308;28;20557;-54
2021/11/14 07:24:52;;;;;;;35.10;13.75;;;;;;;8.43;94.64;98213.63;5042689;28;20486;-54
2021/11/14 07:27:18;;;;;;;34.75;13.48;;;;;;;8.42;94.75;98209.34;5042649;28;20056;-53
2021/11/14 07:29:43;;;;;;;36.80;14.23;;;;;;;8.56;94.18;98214.13;5042541;28;20029;-54
2021/11/14 07:32:10;;;;;;;36.42;13.82;;;;;;;8.42;94.65;98212.78;5023826;28;20503;-55
2021/11/14 07:34:35;;;;;;;36.35;13.45;;;;;;;8.30;95.11;98224.31;5022175;28;20103;-54
2021/11/14 07:37:01;;;;;;;41.13;14.45;;;;;;;8.51;94.68;98211.66;5037862;28;20433;-54
2021/11/14 07:39:26;;;;;;;40.22;13.73;;;;;;;8.62;93.65;98216.53;5041993;28;20111;-55
2021/11/14 07:41:52;;;;;;;30.15;12.18;;;;;;;8.65;94.83;98217.28;5040698;28;20024;-54
2021/11/14 07:44:18;;;;;;;36.45;12.63;;;;;;;8.88;93.09;98218.38;5040557;28;20079;-56
2021/11/14 07:46:43;;;;;;;31.98;12.27;;;;;;;8.51;94.85;98211.66;5041972;28;20091;-55
2021/11/14 07:49:08;;;;;;;36.95;13.35;;;;;;;8.91;92.32;98220.84;5042156;28;20055;-54
2021/11/14 07:51:34;;;;;;;35.30;13.85;;;;;;;8.63;94.49;98216.50;5038678;28;20111;-55
2021/11/14 07:54:00;;;;;;;37.70;13.98;;;;;;;8.74;91.86;98223.13;5041718;28;20029;-55
2021/11/14 07:56:27;;;;;;;33.03;12.15;;;;;;;8.86;93.72;98217.56;5042553;28;20522;-56
2021/11/14 07:58:55;;;;;;;40.92;14.18;;;;;;;8.94;92.42;98225.97;5041427;28;20059;-54
2021/11/14 08:01:20;;;;;;;40.15;13.55;;;;;;;9.01;92.21;98224.88;5029247;28;20042;-54
2021/11/14 08:03:46;;;;;;;40.78;14.25;;;;;;;9.12;91.51;98232.38;5022820;28;20021;-56
2021/11/14 08:06:11;;;;;;;38.17;13.50;;;;;;;9.26;92.94;98221.50;5021630;28;20164;-55
2021/11/14 08:08:37;;;;;;;42.95;14.98;;;;;;;9.13;93.07;98228.84;5020634;28;20024;-56
2021/11/14 08:11:02;;;;;;;38.10;13.55;;;;;;;9.11;90.71;98224.59;5027542;28;20053;-54
2021/11/14 08:13:28;;;;;;;38.22;14.35;;;;;;;9.40;94.00;98224.50;5041552;28;20095;-54
2021/11/14 08:15:53;;;;;;;37.35;14.02;;;;;;;9.35;92.98;98225.56;5040688;28;20718;-55
2021/11/14 08:18:19;;;;;;;36.20;13.60;;;;;;;9.07;95.20;98232.50;5041283;28;20017;-53
2021/11/14 08:20:46;;;;;;;42.83;14.40;;;;;;;9.42;90.79;98232.28;5039726;28;20911;-54
2021/11/14 08:23:14;;;;;;;32.13;12.88;;;;;;;9.19;93.25;98233.00;5041510;28;20117;-54
2021/11/14 08:25:40;;;;;;;32.75;12.73;;;;;;;9.37;92.67;98231.56;5040491;28;20118;-56
2021/11/14 08:28:06;;;;;;;39.25;13.95;;;;;;;9.36;93.19;98237.69;5040971;28;20383;-54
2021/11/14 08:30:31;;;;;;;36.15;14.45;;;;;;;9.08;92.88;98243.78;5039820;28;20044;-56
2021/11/14 08:32:56;;;;;;;31.70;12.63;;;;;;;9.27;93.07;98241.44;5041444;28;20036;-56
2021/11/14 08:35:22;;;;;;;26.85;10.25;;;;;;;9.55;93.32;98253.56;5039313;28;20028;-56
2021/11/14 08:37:50;;;;;;;34.92;14.05;;;;;;;9.40;93.85;98247.94;5040745;28;20020;-57
2021/11/14 08:40:16;;;;;;;30.15;11.38;;;;;;;9.58;93.51;98248.25;5039423;28;20737;-55
2021/11/14 08:42:42;;;;;;;35.42;13.77;;;;;;;9.61;90.72;98254.22;5032292;28;20035;-55
2021/11/14 08:45:08;;;;;;;39.78;14.35;;;;;;;9.05;94.75;98259.47;5038728;28;20040;-55
2021/11/14 08:47:34;;;;;;;32.33;12.68;;;;;;;9.47;92.94;98256.41;5039433;28;20025;-55
2021/11/14 08:50:00;;;;;;;33.95;12.27;;;;;;;9.37;94.96;98255.84;5038891;28;20039;-54
2021/11/14 08:52:29;;;;;;;34.88;13.10;;;;;;;9.66;92.05;98256.66;5038161;28;20569;-54
2021/11/14 08:54:54;;;;;;;34.28;12.75;;;;;;;9.80;92.34;98253.59;5039783;28;20048;-54
2021/11/14 08:57:20;;;;;;;35.38;12.30;;;;;;;9.58;91.33;98266.50;5040275;28;20090;-54
2021/11/14 08:59:46;;;;;;;41.33;12.50;;;;;;;10.15;89.79;98265.41;5039326;28;20065;-55
2021/11/14 09:02:12;;;;;;;31.33;11.90;;;;;;;9.93;90.90;98265.31;5035262;28;20126;-59
2021/11/14 09:04:37;;;;;;;29.83;12.20;;;;;;;10.11;90.40;98253.41;5039363;28;20100;-60
2021/11/14 09:07:04;;;;;;;34.60;12.85;;;;;;;10.23;89.32;98265.97;5037698;28;20052;-59
2021/11/14 09:09:30;;;;;;;29.23;11.68;;;;;;;10.11;90.44;98266.44;5040053;28;20108;-57
2021/11/14 09:11:55;;;;;;;32.15;12.02;;;;;;;10.49;89.60;98279.88;5035902;28;20055;-59
2021/11/14 09:14:22;;;;;;;28.55;11.93;;;;;;;10.44;87.95;98280.94;5039170;28;20037;-57
2021/11/14 09:16:51;;;;;;;25.08;10.45;;;;;;;9.94;87.58;98277.41;5039676;28;20033;-58
2021/11/14 09:19:16;;;;;;;24.75;10.60;;;;;;;10.36;87.10;98281.22;5039402;28;20039;-58
2021/11/14 09:21:42;;;;;;;25.50;11.23;;;;;;;10.34;87.39;98281.28;5038583;28;20041;-60
2021/11/14 09:24:08;;;;;;;22.25;9.43;;;;;;;10.69;86.44;98286.97;5040214;28;20564;-60
2021/11/14 09:26:35;;;;;;;24.05;10.02;;;;;;;10.67;86.01;98285.34;5039348;28;20069;-60
2021/11/14 09:29:00;;;;;;;23.83;10.60;;;;;;;10.74;84.77;98279.00;5041804;28;20056;-62
2021/11/14 09:31:26;;;;;;;24.75;9.55;;;;;;;10.75;85.32;98284.16;5042390;28;20595;-63
2021/11/14 09:33:54;;;;;;;21.80;9.32;;;;;;;10.97;83.75;98281.59;5043506;28;20040;-58
2021/11/14 09:36:21;;;;;;;19.65;8.90;;;;;;;10.65;84.29;98289.78;5040115;28;20072;-60
2021/11/14 09:38:47;;;;;;;19.67;8.82;;;;;;;10.52;85.28;98290.19;5041696;28;20032;-61
2021/11/14 09:41:12;;;;;;;20.25;9.38;;;;;;;11.15;82.72;98287.00;5038789;28;20037;-62
2021/11/14 09:43:37;;;;;;;16.20;7.97;;;;;;;11.27;81.57;98289.16;5043000;28;20468;-61
2021/11/14 09:46:03;;;;;;;17.48;8.13;;;;;;;10.95;81.72;98283.41;5042081;28;20037;-58
2021/11/14 09:48:29;;;;;;;18.40;8.60;;;;;;;10.86;83.08;98283.72;5041466;28;20028;-61
2021/11/14 09:50:55;;;;;;;16.98;8.23;;;;;;;10.76;82.45;98287.59;5039887;28;20041;-59
2021/11/14 09:53:24;;;;;;;21.00;7.65;;;;;;;10.98;82.97;98282.44;5042494;28;20052;-59
2021/11/14 09:55:50;;;;;;;17.10;8.35;;;;;;;10.43;85.32;98279.25;5042213;28;20032;-59
2021/11/14 09:58:16;;;;;;;16.13;8.45;;;;;;;10.73;83.07;98279.88;5042677;28;20033;-60
2021/11/14 10:00:42;;;;;;;13.73;6.88;;;;;;;10.87;83.52;98275.00;5040661;28;20128;-58
2021/11/14 10:03:09;;;;;;;14.65;8.10;;;;;;;11.25;81.35;98275.31;5043663;28;20035;-61
2021/11/14 10:05:35;;;;;;;13.30;6.82;;;;;;;11.55;82.00;98285.44;5042025;28;20049;-62
2021/11/14 10:08:05;;;;;;;12.27;6.28;;;;;;;11.68;83.76;98278.78;5041269;28;20028;-62
2021/11/14 10:10:46;;;;;;;13.85;7.65;;;;;;;11.44;80.89;98280.63;5036940;28;20150;-58
2021/11/14 10:13:21;;;;;;;15.07;8.13;;;;;;;11.56;78.80;98284.50;5041477;28;20052;-62
2021/11/14 10:15:49;;;;;;;17.15;8.88;;;;;;;11.13;80.87;98281.00;5042287;28;20041;-59
2021/11/14 10:18:21;;;;;;;14.55;7.63;;;;;;;11.49;80.72;98283.06;5042614;28;20029;-62
2021/11/14 10:20:50;;;;;;;12.63;7.07;;;;;;;11.64;79.41;98277.22;5039915;28;20415;-61
2021/11/14 10:23:17;;;;;;;13.05;7.28;;;;;;;11.66;79.45;98275.38;5042689;28;20259;-60
2021/11/14 10:25:46;;;;;;;12.30;6.15;;;;;;;11.92;78.99;98276.09;5040962;28;20041;-61
2021/11/14 10:28:12;;;;;;;11.45;6.97;;;;;;;11.58;78.05;98273.09;5040547;28;20061;-62
2021/11/14 10:30:42;;;;;;;10.65;6.00;;;;;;;12.11;78.16;98271.81;5040937;28;20517;-59
2021/11/14 10:33:11;;;;;;;12.60;7.53;;;;;;;11.86;78.64;98271.13;5042915;28;20095;-59
2021/11/14 10:35:38;;;;;;;11.65;6.95;;;;;;;11.90;77.81;98268.31;5042869;28;20570;-63
2021/11/14 10:38:15;;;;;;;13.13;7.22;;;;;;;11.68;79.24;98270.94;5042209;28;20033;-60
2021/11/14 10:40:45;;;;;;;11.13;6.32;;;;;;;11.99;79.77;98274.94;5044891;28;20146;-63
2021/11/14 10:43:11;;;;;;;13.85;6.57;;;;;;;11.67;80.40;98276.22;5040632;28;20043;-59
2021/11/14 10:45:40;;;;;;;14.02;6.53;;;;;;;11.82;79.29;98269.50;5037465;28;20037;-58
2021/11/14 10:48:09;;;;;;;12.52;6.88;;;;;;;11.94;79.52;98269.03;5040764;28;20024;-63
2021/11/14 10:50:37;;;;;;;10.30;6.72;;;;;;;11.87;78.18;98271.06;5039014;28;20033;-61
2021/11/14 10:53:06;;;;;;;11.70;6.55;;;;;;;11.97;79.47;98268.94;5040636;28;20024;-60
2021/11/14 10:55:47;;;;;;;11.70;6.93;;;;;;;12.04;78.75;98264.25;5042129;28;20033;-60
2021/11/14 10:58:20;;;;;;;11.68;6.32;;;;;;;12.05;76.94;98258.13;5040410;28;20029;-61
2021/11/14 11:00:46;;;;;;;;;;;;;;;11.91;79.52;98261.31;5041597;28;20040;-61
2021/11/14 11:03:12;;;;;;;10.35;6.32;;;;;;;11.65;80.12;98263.25;5044175;28;19916;-61
2021/11/14 11:05:39;;;;;;;11.93;6.70;;;;;;;11.80;77.57;98266.13;5044042;28;20103;-57
2021/11/14 11:08:11;;;;;;;11.73;6.07;;;;;;;12.46;77.13;98265.94;5039837;28;20102;-56
2021/11/14 11:10:42;;;;;;;11.15;6.72;;;;;;;12.15;76.85;98265.53;5039420;28;20044;-58
2021/11/14 11:13:12;;;;;;;12.02;7.00;;;;;;;11.75;77.61;98267.16;5040302;28;20103;-57
2021/11/14 11:15:49;;;;;;;15.45;6.68;;;;;;;12.42;84.66;98270.44;5043400;28;20087;-57
2021/11/14 11:18:18;;;;;;;18.35;6.97;;;;;;;11.81;85.19;98270.44;5041109;28;20029;-58
2021/11/14 11:20:49;;;;;;;10.40;6.10;;;;;;;11.77;80.08;98265.34;5039693;28;20124;-58
2021/11/14 11:23:25;;;;;;;12.60;6.38;;;;;;;12.05;84.31;98271.22;5042609;28;20029;-57
2021/11/14 11:25:55;;;;;;;11.73;6.38;;;;;;;12.44;79.75;98260.78;5043190;28;20254;-57